Time;durP1;ratioP1;P1;durP2;ratioP2;P2;SDS_P1;SDS_P2;PMS_P1;PMS_P2;Temp;Humidity;BMP_temperature;BMP_pressure;BME280_temperature;BME280_humidity;BME280_pressure;Samples;Min_cycle;Max_cycle;Signal;HPM_P1;HPM_P2
2024/02/07 00:01:51;;;;;;;5.38;2.58;;;;;;;10.86;49.05;100119.94;5051531;28;20056;-74
2024/02/07 00:04:19;;;;;;;5.73;3.20;;;;;;;10.80;48.70;100119.69;5049988;28;20154;-74
2024/02/07 00:06:47;;;;;;;9.00;3.40;;;;;;;10.79;49.05;100120.69;5038264;28;20087;-74
2024/02/07 00:09:15;;;;;;;5.15;2.83;;;;;;;10.74;49.14;100129.34;5029657;28;20045;-74
2024/02/07 00:11:44;;;;;;;6.55;2.90;;;;;;;10.71;49.17;100109.66;5041421;28;20140;-74
2024/02/07 00:14:12;;;;;;;6.40;3.08;;;;;;;10.68;49.29;100104.47;5046988;28;20055;-74
2024/02/07 00:16:40;;;;;;;6.55;2.75;;;;;;;10.65;49.28;100107.53;5048587;28;20459;-74
2024/02/07 00:19:09;;;;;;;5.97;2.60;;;;;;;10.64;49.90;100100.34;5037873;28;20048;-74
2024/02/07 00:21:38;;;;;;;6.95;2.85;;;;;;;10.60;49.72;100114.31;5047699;28;20045;-73
2024/02/07 00:24:06;;;;;;;5.72;2.85;;;;;;;10.59;49.78;100090.69;5045713;28;20042;-73
2024/02/07 00:26:36;;;;;;;6.88;3.22;;;;;;;10.58;49.72;100085.38;5042183;28;20057;-73
2024/02/07 00:29:04;;;;;;;6.93;3.15;;;;;;;10.55;50.20;100094.78;5042537;28;20595;-74
2024/02/07 00:31:32;;;;;;;5.50;2.92;;;;;;;10.52;50.09;100075.88;5042599;28;20084;-75
2024/02/07 00:34:00;;;;;;;6.30;3.05;;;;;;;10.51;50.39;100085.09;5046777;28;20037;-75
2024/02/07 00:36:30;;;;;;;4.95;2.90;;;;;;;10.51;50.31;100082.38;5029928;28;20037;-75
2024/02/07 00:38:59;;;;;;;4.70;2.85;;;;;;;10.50;50.52;100086.13;5044522;28;20075;-74
2024/02/07 00:41:27;;;;;;;6.38;3.00;;;;;;;10.49;50.35;100070.72;5042777;28;20065;-74
2024/02/07 00:43:55;;;;;;;5.15;2.78;;;;;;;10.48;50.18;100066.25;5037057;28;20091;-74
2024/02/07 00:46:23;;;;;;;5.65;3.10;;;;;;;10.49;50.33;100078.06;5033495;28;20065;-74
2024/02/07 00:48:51;;;;;;;10.43;3.88;;;;;;;10.49;50.41;100075.31;5033483;28;20362;-74
2024/02/07 00:51:19;;;;;;;6.18;3.33;;;;;;;10.48;50.54;100052.56;5044708;28;20133;-74
2024/02/07 00:53:48;;;;;;;3.75;2.60;;;;;;;10.48;50.60;100071.72;5040724;23;20044;-74
2024/02/07 00:56:16;;;;;;;4.88;2.70;;;;;;;10.47;50.45;100064.56;5002111;28;20548;-74
2024/02/07 00:58:44;;;;;;;6.88;3.10;;;;;;;10.47;50.75;100059.09;5039849;28;20056;-74
2024/02/07 01:01:13;;;;;;;7.70;3.47;;;;;;;10.48;51.16;100065.41;5033758;28;20102;-74
2024/02/07 01:03:42;;;;;;;6.22;2.63;;;;;;;10.48;50.83;100054.47;5044095;28;20393;-74
2024/02/07 01:06:10;;;;;;;4.93;2.78;;;;;;;10.48;50.99;100046.25;5034010;28;20041;-74
2024/02/07 01:08:38;;;;;;;6.30;2.92;;;;;;;10.49;50.81;100062.50;5036999;28;20402;-74
2024/02/07 01:11:07;;;;;;;5.55;3.40;;;;;;;10.49;51.44;100050.69;5034799;28;20132;-75
2024/02/07 01:13:35;;;;;;;6.10;2.97;;;;;;;10.48;50.95;100068.16;5042670;28;20046;-74
2024/02/07 01:16:04;;;;;;;5.38;2.90;;;;;;;10.48;51.21;100055.31;5033147;28;20424;-74
2024/02/07 01:18:32;;;;;;;5.22;2.92;;;;;;;10.48;51.51;100047.09;5028852;28;20041;-74
2024/02/07 01:21:00;;;;;;;4.68;2.90;;;;;;;10.49;51.36;100058.91;5029534;28;20433;-74
2024/02/07 01:23:28;;;;;;;6.05;2.83;;;;;;;10.50;51.44;100049.69;5016585;28;20046;-74
2024/02/07 01:25:56;;;;;;;4.57;2.67;;;;;;;10.49;51.28;100039.75;5035155;28;20069;-74
2024/02/07 01:28:26;;;;;;;5.05;2.60;;;;;;;10.51;51.52;100035.00;5028357;28;20488;-74
2024/02/07 01:30:54;;;;;;;5.18;2.80;;;;;;;10.49;51.46;100037.88;5033696;28;20056;-74
2024/02/07 01:33:22;;;;;;;4.93;2.65;;;;;;;10.49;51.85;100028.81;5033277;28;20045;-74
2024/02/07 01:35:51;;;;;;;8.15;3.42;;;;;;;10.49;51.40;100043.34;5021321;28;20069;-74
2024/02/07 01:38:19;;;;;;;5.07;3.00;;;;;;;10.49;51.53;100050.69;5007314;28;20046;-74
2024/02/07 01:40:48;;;;;;;5.47;2.72;;;;;;;10.48;51.35;100046.25;5021603;28;20057;-74
2024/02/07 01:43:17;;;;;;;5.15;2.75;;;;;;;10.47;51.75;100036.34;5030114;28;20080;-74
2024/02/07 01:45:46;;;;;;;5.03;2.47;;;;;;;10.47;51.97;100028.13;5038927;28;20033;-74
2024/02/07 01:48:14;;;;;;;5.40;2.97;;;;;;;10.46;52.00;100023.66;5032196;28;20037;-74
2024/02/07 01:50:43;;;;;;;4.97;2.70;;;;;;;10.46;52.08;100016.31;5030908;28;20045;-74
2024/02/07 01:53:12;;;;;;;5.60;2.65;;;;;;;10.46;51.92;100020.94;5027073;28;20037;-74
2024/02/07 01:55:41;;;;;;;5.07;2.35;;;;;;;10.44;51.63;100029.28;5009789;28;20079;-74
2024/02/07 01:58:09;;;;;;;5.30;2.42;;;;;;;10.45;52.22;100027.41;5018176;28;20049;-74
2024/02/07 02:00:38;;;;;;;4.40;2.78;;;;;;;10.44;52.27;100023.81;5030204;28;20121;-74
2024/02/07 02:03:08;;;;;;;4.53;2.50;;;;;;;10.44;51.96;100012.88;5038260;28;20057;-74
2024/02/07 02:05:36;;;;;;;5.00;2.70;;;;;;;10.43;52.23;100013.03;5013747;28;20045;-74
2024/02/07 02:08:04;;;;;;;5.32;2.67;;;;;;;10.44;52.18;100015.59;5039658;28;20049;-74
2024/02/07 02:10:32;;;;;;;5.65;2.40;;;;;;;10.44;52.33;99995.59;5010773;28;20064;-74
2024/02/07 02:13:01;;;;;;;4.43;2.53;;;;;;;10.44;51.93;100003.81;5040750;28;20065;-74
2024/02/07 02:15:29;;;;;;;6.65;3.40;;;;;;;10.44;51.85;100012.00;5037553;28;20396;-74
2024/02/07 02:17:57;;;;;;;5.72;2.90;;;;;;;10.44;51.84;99993.72;5039988;28;20469;-74
2024/02/07 02:20:28;;;;;;;7.22;3.28;;;;;;;10.44;52.43;99988.25;5013396;28;20040;-73
2024/02/07 02:23:10;;;;;;;6.65;3.15;;;;;;;10.47;53.04;99987.09;5029633;28;20473;-73
2024/02/07 02:25:49;;;;;;;5.53;2.90;;;;;;;10.44;52.85;99990.13;5019057;28;20511;-74
2024/02/07 02:28:27;;;;;;;6.47;2.97;;;;;;;10.45;52.35;99978.16;5006866;28;20041;-73
2024/02/07 02:31:01;;;;;;;7.22;2.88;;;;;;;10.43;52.29;99983.78;5005011;28;20167;-74
2024/02/07 02:33:33;;;;;;;6.88;2.50;;;;;;;10.42;52.19;99979.34;5033530;28;20451;-74
2024/02/07 02:36:04;;;;;;;6.93;2.85;;;;;;;10.39;52.31;99976.06;5015353;28;20184;-73
2024/02/07 02:38:35;;;;;;;5.13;2.65;;;;;;;10.42;52.37;99976.59;5027304;28;20153;-74
2024/02/07 02:41:07;;;;;;;5.75;3.05;;;;;;;10.41;52.24;99960.34;5039372;28;20091;-73
2024/02/07 02:43:37;;;;;;;5.75;2.67;;;;;;;10.39;52.33;99952.31;5004665;28;20137;-73
2024/02/07 02:46:09;;;;;;;6.88;2.80;;;;;;;10.41;52.14;99941.19;5009263;28;20383;-73
2024/02/07 02:48:37;;;;;;;4.78;2.75;;;;;;;10.39;52.58;99935.03;5034747;28;20049;-73
2024/02/07 02:51:06;;;;;;;6.47;2.20;;;;;;;10.39;52.08;99938.63;5038414;28;20068;-73
2024/02/07 02:53:34;;;;;;;5.35;2.50;;;;;;;10.39;52.50;99918.63;5040590;28;20124;-73
2024/02/07 02:56:03;;;;;;;5.47;2.67;;;;;;;10.38;52.72;99917.75;5009263;28;20045;-73
2024/02/07 02:58:32;;;;;;;5.63;3.13;;;;;;;10.40;52.58;99909.41;5041445;28;20531;-73
2024/02/07 03:01:12;;;;;;;5.28;2.90;;;;;;;10.38;52.87;99915.03;5013699;28;20113;-73
2024/02/07 03:03:44;;;;;;;4.40;2.58;;;;;;;10.38;52.81;99923.22;5033716;28;20586;-73
2024/02/07 03:06:28;;;;;;;6.87;3.00;;;;;;;10.36;52.71;99910.72;5017641;28;20073;-73
2024/02/07 03:09:07;;;;;;;6.50;2.58;;;;;;;10.38;52.34;99911.44;5011079;28;20382;-73
2024/02/07 03:11:36;;;;;;;5.70;2.40;;;;;;;10.36;52.66;99908.84;5009609;28;20124;-73
2024/02/07 03:14:05;;;;;;;6.65;2.45;;;;;;;10.37;52.81;99906.97;5039758;28;20399;-74
2024/02/07 03:16:36;;;;;;;6.85;2.63;;;;;;;10.38;52.34;99884.94;5030822;28;20057;-73
2024/02/07 03:19:04;;;;;;;6.55;2.70;;;;;;;10.36;52.53;99881.50;5030080;28;20041;-73
2024/02/07 03:21:32;;;;;;;4.85;2.40;;;;;;;10.36;52.42;99897.03;5040583;28;20072;-73
2024/02/07 03:24:00;;;;;;;4.53;2.42;;;;;;;10.35;52.43;99896.19;5012372;28;20504;-74
2024/02/07 03:26:28;;;;;;;4.93;2.55;;;;;;;10.36;52.48;99897.91;5019874;28;20361;-74
2024/02/07 03:28:56;;;;;;;4.18;2.20;;;;;;;10.36;52.48;99894.31;5038077;28;20045;-73
2024/02/07 03:31:26;;;;;;;4.32;2.25;;;;;;;10.35;53.04;99889.84;5011143;28;20504;-74
2024/02/07 03:33:55;;;;;;;5.30;2.45;;;;;;;10.35;52.88;99885.25;5028771;28;20044;-74
2024/02/07 03:36:26;;;;;;;5.63;2.30;;;;;;;10.35;52.71;99867.97;5015811;28;20049;-74
2024/02/07 03:38:55;;;;;;;4.13;2.13;;;;;;;10.34;52.43;99858.03;5031271;28;20069;-74
2024/02/07 03:41:23;;;;;;;4.97;2.33;;;;;;;10.33;52.99;99850.84;5033010;28;20045;-73
2024/02/07 03:43:51;;;;;;;4.72;2.22;;;;;;;10.34;52.67;99855.31;5040339;28;20076;-73
2024/02/07 03:46:19;;;;;;;5.82;2.20;;;;;;;10.34;52.64;99855.31;5035610;28;20037;-73
2024/02/07 03:48:47;;;;;;;4.00;2.25;;;;;;;10.33;52.98;99878.19;5042390;28;20357;-74
2024/02/07 03:51:17;;;;;;;4.60;2.45;;;;;;;10.35;52.88;99859.75;5035421;28;20124;-74
2024/02/07 03:53:46;;;;;;;4.93;2.08;;;;;;;10.32;53.17;99844.53;5029734;28;20112;-74
2024/02/07 03:56:14;;;;;;;4.80;2.53;;;;;;;10.32;52.75;99840.97;5037570;28;20037;-73
2024/02/07 03:58:42;;;;;;;5.68;2.30;;;;;;;10.33;53.13;99842.66;5015258;28;20041;-73
2024/02/07 04:01:15;;;;;;;4.00;2.00;;;;;;;10.33;52.98;99835.31;5010842;28;20053;-73
2024/02/07 04:03:43;;;;;;;;;;;;;;;10.07;53.64;99832.50;5008412;28;20057;-73
2024/02/07 04:06:12;;;;;;;4.47;2.17;;;;;;;10.27;52.56;99844.16;5018497;28;19924;-73
2024/02/07 04:08:42;;;;;;;4.20;1.73;;;;;;;10.32;52.91;99830.84;5035183;28;20780;-73
2024/02/07 05:17:02;;;;;;;2.38;0.80;;;;;;;8.62;48.51;99998.72;5028306;28;20319;-73
2024/02/07 05:19:30;;;;;;;1.63;0.68;;;;;;;8.56;48.08;99999.31;5041942;28;20033;-73
2024/02/07 05:21:59;;;;;;;2.45;0.80;;;;;;;8.52;48.23;100010.63;5015941;28;20072;-73
2024/02/07 05:24:27;;;;;;;1.30;0.63;;;;;;;8.49;48.66;100008.19;5025737;28;20033;-72
2024/02/07 05:26:55;;;;;;;1.60;0.80;;;;;;;8.45;48.61;100007.59;5014205;28;20496;-72
2024/02/07 05:29:26;;;;;;;1.42;0.63;;;;;;;8.43;48.53;100003.28;5037667;28;20041;-72
2024/02/07 05:31:53;;;;;;;2.25;0.75;;;;;;;8.40;48.86;100007.19;5024897;28;20603;-73
2024/02/07 05:34:23;;;;;;;2.80;0.80;;;;;;;8.38;49.10;100017.38;5017429;28;20124;-73
2024/02/07 05:36:51;;;;;;;1.73;0.70;;;;;;;8.38;48.84;100024.69;5032447;28;20083;-73
2024/02/07 05:39:19;;;;;;;2.03;0.70;;;;;;;8.34;48.64;100026.84;5038312;28;20044;-73
2024/02/07 05:41:47;;;;;;;1.60;0.90;;;;;;;8.33;48.30;100031.44;5034350;28;20049;-73
2024/02/07 05:44:15;;;;;;;1.48;0.70;;;;;;;8.29;48.54;100037.28;5008551;28;20207;-72
2024/02/07 05:46:44;;;;;;;1.63;0.60;;;;;;;8.26;48.18;100032.97;5030483;28;20132;-73
2024/02/07 05:49:13;;;;;;;2.03;0.98;;;;;;;8.23;48.40;100033.25;5033367;28;20037;-73
2024/02/07 05:51:42;;;;;;;2.85;0.93;;;;;;;8.20;48.04;100038.97;5031241;28;20056;-73
2024/02/07 05:54:10;;;;;;;1.55;0.68;;;;;;;8.17;48.40;100043.88;5027861;28;20053;-73
2024/02/07 05:56:37;;;;;;;1.58;0.80;;;;;;;8.16;48.25;100048.47;5041669;28;20497;-73
2024/02/07 05:59:05;;;;;;;2.50;1.08;;;;;;;8.13;48.63;100050.56;5040864;28;20669;-73
2024/02/07 06:01:34;;;;;;;1.23;0.60;;;;;;;8.13;48.78;100061.44;5020107;28;20046;-73
2024/02/07 06:04:07;;;;;;;2.53;0.80;;;;;;;8.12;48.12;100052.41;5034664;28;20037;-73
2024/02/07 06:06:35;;;;;;;3.50;1.17;;;;;;;8.10;48.39;100051.69;5037262;28;20144;-73
2024/02/07 06:09:05;;;;;;;2.83;0.85;;;;;;;8.09;48.21;100043.66;5040297;28;20044;-73
2024/02/07 06:11:34;;;;;;;1.90;0.80;;;;;;;8.08;48.38;100053.69;5038640;28;20098;-73
2024/02/07 06:14:04;;;;;;;1.88;0.80;;;;;;;8.06;48.54;100050.25;5005860;28;20108;-73
2024/02/07 06:16:34;;;;;;;4.03;1.30;;;;;;;8.05;48.27;100051.25;5028652;28;20041;-73
2024/02/07 06:19:04;;;;;;;2.42;0.80;;;;;;;8.07;48.45;100059.28;5040223;28;20099;-73
2024/02/07 06:21:32;;;;;;;2.72;0.88;;;;;;;8.04;48.44;100060.41;5011990;28;20398;-73
2024/02/07 06:24:00;;;;;;;2.85;0.90;;;;;;;8.05;48.60;100055.81;5044392;28;20575;-73
2024/02/07 06:26:28;;;;;;;2.30;0.98;;;;;;;8.05;48.77;100061.28;5042537;28;20048;-73
2024/02/07 06:28:56;;;;;;;1.38;0.68;;;;;;;8.05;48.70;100067.59;5014346;28;20477;-73
2024/02/07 06:31:24;;;;;;;2.13;0.90;;;;;;;8.04;48.75;100065.88;5012700;28;20049;-73
2024/02/07 06:33:52;;;;;;;2.08;0.93;;;;;;;8.05;48.98;100073.03;5036304;28;20544;-73
2024/02/07 06:36:21;;;;;;;3.05;1.10;;;;;;;8.06;48.88;100065.72;5016916;28;20049;-73
2024/02/07 06:38:49;;;;;;;1.83;0.93;;;;;;;8.05;48.68;100074.91;5027988;28;20100;-73
2024/02/07 06:41:17;;;;;;;3.17;1.27;;;;;;;8.05;48.76;100077.63;5006126;28;20428;-73
2024/02/07 06:43:46;;;;;;;1.70;0.93;;;;;;;8.03;48.52;100085.06;5027356;28;20045;-73
2024/02/07 06:46:14;;;;;;;3.00;1.33;;;;;;;8.03;48.66;100088.66;5028260;28;20508;-73
2024/02/07 06:48:42;;;;;;;2.08;1.00;;;;;;;8.01;48.41;100093.41;5009595;28;20038;-73
2024/02/07 06:51:10;;;;;;;4.25;1.10;;;;;;;8.00;48.47;100091.69;5027633;28;20049;-73
2024/02/07 06:53:39;;;;;;;2.70;1.23;;;;;;;8.00;48.20;100097.13;5027970;28;20065;-73
2024/02/07 06:56:07;;;;;;;4.45;1.33;;;;;;;7.96;48.76;100092.94;5031967;28;20133;-73
2024/02/07 06:58:35;;;;;;;3.58;1.00;;;;;;;7.95;48.45;100086.63;5033370;28;20064;-73
2024/02/07 07:01:04;;;;;;;2.28;1.17;;;;;;;7.94;49.01;100086.75;5036748;28;20507;-73
2024/02/07 07:03:32;;;;;;;2.25;1.20;;;;;;;7.95;49.04;100091.22;5030985;28;20034;-73
2024/02/07 07:06:00;;;;;;;1.92;0.90;;;;;;;7.93;49.13;100098.66;5030182;28;20100;-73
2024/02/07 07:08:28;;;;;;;2.75;1.13;;;;;;;7.94;49.22;100095.78;5015487;28;20124;-73
2024/02/07 07:10:57;;;;;;;1.83;1.05;;;;;;;7.95;49.21;100088.47;5030845;28;20052;-73
2024/02/07 07:13:25;;;;;;;1.63;0.85;;;;;;;7.95;48.91;100102.09;5042424;28;20041;-72
2024/02/07 07:15:53;;;;;;;2.40;1.00;;;;;;;7.95;49.11;100107.56;5028116;28;20515;-73
2024/02/07 07:18:21;;;;;;;2.67;0.90;;;;;;;7.97;49.16;100124.63;5044726;28;20045;-73
2024/02/07 07:20:49;;;;;;;1.92;1.00;;;;;;;7.98;49.02;100130.94;5037099;28;20177;-72
2024/02/07 07:23:17;;;;;;;2.15;1.00;;;;;;;7.97;48.86;100138.25;5044282;28;20048;-73
2024/02/07 07:25:45;;;;;;;3.13;1.00;;;;;;;7.96;49.11;100139.25;5027412;28;20570;-73
2024/02/07 07:28:15;;;;;;;2.95;1.40;;;;;;;7.98;48.78;100153.63;5038946;28;20041;-73
2024/02/07 07:30:43;;;;;;;2.08;0.98;;;;;;;7.96;48.82;100156.47;5032992;28;20456;-72
2024/02/07 07:33:11;;;;;;;2.55;0.90;;;;;;;7.95;48.82;100148.41;5037494;28;20065;-73
2024/02/07 07:35:39;;;;;;;3.38;1.10;;;;;;;7.93;48.77;100156.72;5013600;28;20045;-73
2024/02/07 07:38:09;;;;;;;2.97;1.08;;;;;;;7.90;48.63;100151.56;5007699;28;20041;-73
2024/02/07 07:40:39;;;;;;;1.83;0.80;;;;;;;7.90;48.42;100157.00;5020579;28;20056;-73
2024/02/07 07:43:07;;;;;;;2.28;0.93;;;;;;;7.88;49.01;100160.88;5041170;28;20037;-73
2024/02/07 07:45:36;;;;;;;3.05;1.00;;;;;;;7.89;48.66;100158.00;5009106;28;21030;-73
2024/02/07 07:48:05;;;;;;;2.00;1.10;;;;;;;7.87;49.08;100164.56;5018383;28;20049;-73
2024/02/07 07:50:34;;;;;;;2.78;1.10;;;;;;;7.86;48.73;100173.75;5029927;28;20092;-73
2024/02/07 07:53:01;;;;;;;3.45;1.05;;;;;;;7.82;48.40;100167.72;5035876;28;20053;-73
2024/02/07 07:55:30;;;;;;;3.15;1.20;;;;;;;7.79;47.65;100165.25;5016533;28;20049;-73
2024/02/07 07:57:57;;;;;;;2.42;1.15;;;;;;;7.73;47.83;100164.94;5013061;28;20037;-73
2024/02/07 08:00:26;;;;;;;3.30;1.08;;;;;;;7.67;47.59;100169.06;5030541;28;20056;-73
2024/02/07 08:02:56;;;;;;;2.80;1.20;;;;;;;7.62;47.44;100174.00;5026867;28;20444;-73
2024/02/07 08:05:23;;;;;;;2.55;0.80;;;;;;;7.53;47.43;100177.53;5032280;28;20046;-73
2024/02/07 08:07:52;;;;;;;3.00;1.10;;;;;;;7.48;47.22;100185.25;5029320;28;20099;-73
2024/02/07 08:10:20;;;;;;;2.47;1.08;;;;;;;7.43;47.66;100185.66;5043621;28;20029;-74
2024/02/07 08:12:48;;;;;;;3.42;1.05;;;;;;;7.38;47.75;100179.72;5040901;28;20046;-73
2024/02/07 08:15:16;;;;;;;2.65;1.10;;;;;;;7.37;48.25;100188.00;5031722;28;20041;-73
2024/02/07 08:17:43;;;;;;;3.13;1.10;;;;;;;7.34;48.10;100189.16;5032773;28;20049;-73
2024/02/07 08:20:13;;;;;;;3.50;1.20;;;;;;;7.36;48.44;100194.44;5046648;28;20053;-73
2024/02/07 08:22:41;;;;;;;2.45;1.00;;;;;;;7.34;48.37;100189.16;5036473;28;20056;-73
2024/02/07 08:25:09;;;;;;;2.10;1.00;;;;;;;7.34;48.45;100183.69;5030873;28;20033;-73
2024/02/07 08:27:38;;;;;;;1.80;1.00;;;;;;;7.35;48.39;100187.28;5044623;28;20534;-73
2024/02/07 08:30:06;;;;;;;3.25;1.20;;;;;;;7.36;48.53;100189.84;5040463;28;20048;-72
2024/02/07 08:32:34;;;;;;;3.10;1.13;;;;;;;7.35;48.38;100184.56;5039339;28;20037;-72
2024/02/07 08:35:02;;;;;;;1.88;1.10;;;;;;;7.35;48.60;100188.16;5036842;28;20095;-73
2024/02/07 08:37:32;;;;;;;3.80;1.40;;;;;;;7.36;48.81;100189.84;5030540;28;20076;-73
2024/02/07 08:40:00;;;;;;;3.42;1.38;;;;;;;7.35;48.92;100196.31;5034920;28;20095;-74
2024/02/07 08:42:28;;;;;;;2.88;1.40;;;;;;;7.36;48.78;100199.88;5036938;28;20539;-74
2024/02/07 08:44:55;;;;;;;2.67;1.23;;;;;;;7.35;49.08;100206.34;5025369;28;20053;-73
2024/02/07 08:47:23;;;;;;;2.95;1.25;;;;;;;7.34;48.45;100202.75;5042420;28;20558;-74
2024/02/07 08:49:51;;;;;;;3.13;1.20;;;;;;;7.34;48.02;100207.34;5035652;28;20102;-74
2024/02/07 08:52:19;;;;;;;2.28;1.30;;;;;;;7.32;47.92;100210.19;5029291;28;20408;-74
2024/02/07 08:54:49;;;;;;;2.38;1.20;;;;;;;7.32;48.07;100215.63;5033178;28;20053;-73
2024/02/07 08:57:17;;;;;;;3.58;1.70;;;;;;;7.29;47.98;100217.72;5032162;28;20041;-74
2024/02/07 08:59:45;;;;;;;3.40;1.27;;;;;;;7.27;47.97;100225.19;5029309;28;20045;-74
2024/02/07 09:02:14;;;;;;;3.25;1.40;;;;;;;7.26;48.29;100218.88;5032788;28;20116;-74
2024/02/07 09:04:42;;;;;;;4.53;1.70;;;;;;;7.25;48.54;100219.84;5040836;28;20390;-74
2024/02/07 09:07:10;;;;;;;3.22;1.60;;;;;;;7.24;48.56;100215.41;5029662;28;20477;-74
2024/02/07 09:09:38;;;;;;;3.78;1.70;;;;;;;7.26;48.97;100223.44;5041570;28;20107;-74
2024/02/07 09:12:08;;;;;;;3.88;1.50;;;;;;;7.26;49.24;100227.03;5028533;28;20057;-73
2024/02/07 09:14:36;;;;;;;3.05;1.42;;;;;;;7.26;48.69;100239.78;5035879;28;20436;-73
2024/02/07 09:17:04;;;;;;;2.78;1.40;;;;;;;7.26;49.04;100232.47;5033849;28;20044;-73
2024/02/07 09:19:32;;;;;;;2.90;1.38;;;;;;;7.27;48.93;100236.06;5038246;28;20048;-73
2024/02/07 09:22:00;;;;;;;3.78;1.80;;;;;;;7.27;48.88;100239.63;5042210;28;20521;-73
2024/02/07 09:24:28;;;;;;;3.13;1.38;;;;;;;7.28;49.02;100240.47;5032573;28;20048;-73
2024/02/07 09:26:57;;;;;;;2.53;1.25;;;;;;;7.27;49.15;100247.78;5032422;28;20056;-73
2024/02/07 09:29:27;;;;;;;2.70;1.40;;;;;;;7.29;48.96;100244.94;5037694;28;20041;-73
2024/02/07 09:31:55;;;;;;;4.05;1.58;;;;;;;7.28;48.88;100244.06;5026740;28;20288;-73
2024/02/07 09:34:23;;;;;;;3.85;1.52;;;;;;;7.30;48.75;100235.78;5029680;28;20520;-73
2024/02/07 09:36:51;;;;;;;2.45;1.33;;;;;;;7.28;49.00;100238.63;5031344;28;20301;-73
2024/02/07 09:39:20;;;;;;;3.40;1.50;;;;;;;7.28;48.58;100243.22;5035117;28;20043;-73
2024/02/07 09:41:50;;;;;;;3.53;1.63;;;;;;;7.27;48.36;100238.78;5035314;28;20124;-73
2024/02/07 09:44:19;;;;;;;3.78;1.67;;;;;;;7.25;48.61;100243.47;5034951;28;20129;-73
2024/02/07 09:46:53;;;;;;;2.80;1.60;;;;;;;7.25;48.69;100254.38;5029892;28;20044;-74
2024/02/07 09:49:24;;;;;;;3.17;1.60;;;;;;;7.23;48.50;100259.06;5031638;28;20452;-73
2024/02/07 09:51:53;;;;;;;4.60;1.50;;;;;;;7.20;48.76;100263.78;5027850;28;20501;-73
2024/02/07 09:54:22;;;;;;;3.80;1.63;;;;;;;7.19;48.41;100261.16;5034825;28;20040;-73
2024/02/07 09:56:52;;;;;;;4.45;1.70;;;;;;;7.18;48.47;100260.34;5035198;28;20057;-73
2024/02/07 09:59:21;;;;;;;3.53;1.48;;;;;;;7.18;48.63;100259.47;5035179;28;20139;-73
2024/02/07 10:01:52;;;;;;;4.22;1.58;;;;;;;7.18;49.12;100252.16;5029669;28;20073;-74
2024/02/07 10:04:26;;;;;;;3.45;1.55;;;;;;;7.19;48.93;100258.44;5013541;28;20137;-73
2024/02/07 10:06:57;;;;;;;3.33;1.42;;;;;;;7.15;48.93;100255.13;5033972;28;20144;-73
2024/02/07 10:09:28;;;;;;;4.28;1.52;;;;;;;7.15;49.17;100260.56;5020750;28;20056;-73
2024/02/07 10:11:57;;;;;;;3.33;1.55;;;;;;;7.14;48.73;100266.13;5004220;28;20139;-73
2024/02/07 10:14:26;;;;;;;4.95;1.95;;;;;;;7.16;49.17;100261.44;5015165;28;20808;-73
2024/02/07 10:16:55;;;;;;;4.57;1.60;;;;;;;7.14;48.96;100253.41;5030580;28;20072;-73
2024/02/07 10:19:25;;;;;;;3.75;1.58;;;;;;;7.15;49.15;100246.09;5030959;28;20041;-73
2024/02/07 10:21:54;;;;;;;4.53;1.80;;;;;;;7.14;48.73;100247.09;5016575;28;20144;-72
2024/02/07 10:24:22;;;;;;;4.20;1.85;;;;;;;7.13;48.97;100257.09;5040803;28;20451;-73
2024/02/07 10:26:50;;;;;;;4.70;1.80;;;;;;;7.13;49.01;100251.66;5029340;28;21052;-73
2024/02/07 10:29:21;;;;;;;4.68;2.10;;;;;;;7.12;49.14;100259.94;5032923;28;20045;-73
2024/02/07 10:31:53;;;;;;;3.85;1.67;;;;;;;7.14;48.68;100258.84;5033489;28;20045;-73
2024/02/07 10:34:22;;;;;;;3.85;2.35;;;;;;;7.12;49.31;100263.53;5030891;28;20041;-73
2024/02/07 10:36:57;;;;;;;5.45;2.15;;;;;;;7.15;49.58;100270.59;5023237;28;20148;-73
2024/02/07 10:39:25;;;;;;;5.43;2.33;;;;;;;7.12;49.33;100270.84;5040414;28;20591;-73
2024/02/07 10:41:53;;;;;;;5.78;2.25;;;;;;;7.12;49.42;100274.41;5039045;28;20524;-73
2024/02/07 10:44:21;;;;;;;4.32;2.10;;;;;;;7.13;49.31;100269.84;5011963;28;20038;-73
2024/02/07 10:46:49;;;;;;;4.25;2.22;;;;;;;7.15;49.25;100276.03;5005528;28;20077;-73
2024/02/07 10:49:18;;;;;;;5.63;2.35;;;;;;;7.16;49.47;100275.03;5034275;28;20068;-73
2024/02/07 10:51:48;;;;;;;4.30;2.03;;;;;;;7.15;49.36;100279.63;5013426;28;20057;-73
2024/02/07 10:54:16;;;;;;;6.85;2.28;;;;;;;7.15;49.59;100276.91;5033713;28;20037;-73
2024/02/07 10:56:47;;;;;;;5.95;2.20;;;;;;;7.16;49.67;100280.50;5034680;28;20492;-73
2024/02/07 10:59:15;;;;;;;5.38;2.50;;;;;;;7.16;49.63;100288.66;5027713;28;20069;-73
2024/02/07 11:01:45;;;;;;;3.72;1.80;;;;;;;7.16;49.56;100294.09;5015853;28;20034;-73
2024/02/07 11:04:13;;;;;;;3.40;1.90;;;;;;;7.16;49.57;100272.31;5011203;28;20140;-73
2024/02/07 11:06:42;;;;;;;3.75;1.83;;;;;;;7.16;49.43;100278.63;5026046;28;20068;-73
2024/02/07 11:09:12;;;;;;;3.83;2.10;;;;;;;7.17;49.98;100274.06;5033795;28;20047;-73
2024/02/07 11:11:41;;;;;;;4.80;2.08;;;;;;;7.16;49.51;100285.94;5026400;28;20457;-73
2024/02/07 11:14:12;;;;;;;5.43;2.10;;;;;;;7.17;49.64;100276.78;5033763;28;20095;-73
2024/02/07 11:16:39;;;;;;;5.68;2.05;;;;;;;7.15;49.94;100267.88;5030258;28;20120;-73
2024/02/07 11:19:08;;;;;;;5.47;2.28;;;;;;;7.15;49.79;100266.00;5010053;28;20069;-73
2024/02/07 11:21:38;;;;;;;6.10;2.40;;;;;;;7.17;49.84;100255.00;5036026;28;20057;-73
2024/02/07 11:24:08;;;;;;;4.38;2.40;;;;;;;7.18;49.78;100245.84;5007478;28;20107;-73
2024/02/07 11:26:38;;;;;;;5.15;2.42;;;;;;;7.17;49.89;100238.69;5008163;28;20049;-73
2024/02/07 11:29:06;;;;;;;6.13;2.92;;;;;;;7.17;49.79;100238.69;5020914;28;20041;-75
2024/02/07 11:31:35;;;;;;;5.65;2.47;;;;;;;7.17;49.59;100233.25;5005397;28;20131;-72
2024/02/07 11:34:03;;;;;;;6.90;2.70;;;;;;;7.17;49.93;100235.97;5037776;28;20041;-74
2024/02/07 11:36:34;;;;;;;5.60;2.33;;;;;;;7.18;49.62;100221.38;5037032;28;20407;-73
2024/02/07 11:39:02;;;;;;;5.13;2.08;;;;;;;7.15;49.78;100213.44;5028852;28;20044;-73
2024/02/07 11:41:30;;;;;;;5.97;2.55;;;;;;;7.15;49.51;100216.16;5017317;28;20037;-75
2024/02/07 11:44:06;;;;;;;4.72;2.38;;;;;;;7.16;49.45;100215.19;5033571;28;20132;-73
2024/02/07 11:46:34;;;;;;;4.43;2.15;;;;;;;7.12;49.54;100214.56;5022045;28;21613;-73
2024/02/07 11:49:02;;;;;;;4.05;1.70;;;;;;;7.11;49.56;100223.72;5036727;28;20045;-73
2024/02/07 11:51:35;;;;;;;5.28;1.65;;;;;;;7.11;48.81;100212.81;5009447;28;20042;-73
2024/02/07 11:54:06;;;;;;;;;;;;;;;6.86;49.81;100217.72;5026022;28;20412;-73
2024/02/07 11:56:34;;;;;;;3.72;1.75;;;;;;;7.02;49.39;100210.03;5033494;28;19921;-74
2024/02/07 11:59:05;;;;;;;4.15;1.60;;;;;;;7.05;49.12;100204.31;5021917;28;20684;-74
2024/02/07 12:01:34;;;;;;;4.22;1.80;;;;;;;7.03;49.47;100192.69;5032421;28;20041;-73
2024/02/07 12:04:03;;;;;;;4.22;1.80;;;;;;;7.01;49.17;100208.31;5020479;28;20038;-74
2024/02/07 12:06:33;;;;;;;4.03;1.80;;;;;;;7.00;49.37;100203.84;5010731;28;20432;-73
2024/02/07 12:09:01;;;;;;;4.60;1.98;;;;;;;6.99;49.50;100210.28;5011622;28;20040;-73
2024/02/07 12:11:30;;;;;;;3.38;1.63;;;;;;;6.99;49.59;100213.88;5042000;28;20511;-73
2024/02/07 12:13:58;;;;;;;4.65;1.90;;;;;;;6.97;49.80;100220.41;5024026;28;20048;-74
2024/02/07 12:16:28;;;;;;;3.95;1.90;;;;;;;6.99;49.70;100213.00;5011032;28;20038;-74
2024/02/07 12:18:56;;;;;;;3.17;1.63;;;;;;;6.98;50.05;100216.69;5031331;28;20049;-73
2024/02/07 12:21:24;;;;;;;3.72;2.00;;;;;;;6.98;49.92;100205.81;5037087;28;20464;-73
2024/02/07 12:23:54;;;;;;;4.57;1.85;;;;;;;6.99;49.65;100213.88;5015041;28;20132;-73
2024/02/07 12:26:25;;;;;;;3.92;2.00;;;;;;;7.02;49.39;100216.34;5035879;28;20088;-73
2024/02/07 12:28:58;;;;;;;3.63;1.83;;;;;;;7.02;49.35;100208.19;5039023;28;20124;-73
2024/02/07 12:31:28;;;;;;;5.53;2.33;;;;;;;7.02;49.59;100202.75;5039792;28;20049;-73
2024/02/07 12:33:56;;;;;;;5.57;2.42;;;;;;;7.00;49.55;100207.44;5019015;28;20045;-73
2024/02/07 12:36:24;;;;;;;5.35;2.40;;;;;;;7.01;49.71;100195.56;5038382;28;20068;-73
2024/02/07 12:38:52;;;;;;;5.78;2.13;;;;;;;7.00;49.61;100192.97;5030734;28;20137;-73
2024/02/07 12:41:20;;;;;;;3.80;1.90;;;;;;;7.00;49.57;100191.09;5041086;28;20516;-73
2024/02/07 12:43:48;;;;;;;4.80;2.08;;;;;;;7.02;49.44;100193.72;5037537;28;20505;-73
2024/02/07 12:46:16;;;;;;;4.68;2.10;;;;;;;7.01;49.82;100179.25;5013814;28;20061;-73